Terminal Aerodrome Forecast
Issued by NWS Wilmington, OH

Home | Current Version | Previous Version | Text Only | Print | Product List | Glossary On
Versions: 1 2 3 4 5 6 7 8 9 10 11 12 13 14 15 16 17 18 19 20 21 22 23 24 25
096
FTUS41 KILN 301742
TAFCMH
TAF
KCMH 301742Z 3018/0118 10008KT 4SM -SHRA BR OVC025
     FM302100 11010KT 2SM SHRA BR OVC015
     FM010000 12010KT 4SM BR OVC008
     FM010400 18010KT 4SM BR VCTS OVC015CB
      TEMPO 0104/0108 2SM SHRA BR OVC008
     FM010800 19006KT 4SM BR OVC007
     FM011400 23006KT P6SM BKN015=

USA.gov is the U.S. government's official web portal to all federal, state and local government web resources and services.